Time;durP1;ratioP1;P1;durP2;ratioP2;P2;SDS_P1;SDS_P2;PMS_P1;PMS_P2;Temp;Humidity;BMP_temperature;BMP_pressure;BME280_temperature;BME280_humidity;BME280_pressure;Samples;Min_cycle;Max_cycle;Signal;HPM_P1;HPM_P2
2023/08/15 00:02:09;;;;;;;9.40;3.95;;;;;;;20.70;100.00;101128.16;5088932;28;20039;-70
2023/08/15 00:04:35;;;;;;;10.00;4.53;;;;;;;20.61;100.00;101125.06;5090014;28;20123;-69
2023/08/15 00:07:03;;;;;;;8.90;4.25;;;;;;;20.59;100.00;101135.34;5089966;28;20023;-69
2023/08/15 00:09:28;;;;;;;9.63;4.15;;;;;;;20.54;100.00;101130.72;5088529;28;20123;-69
2023/08/15 00:11:53;;;;;;;10.23;4.10;;;;;;;20.55;100.00;101131.53;5089967;28;20134;-69
2023/08/15 00:14:19;;;;;;;6.05;3.55;;;;;;;20.44;100.00;101137.91;5090019;28;20039;-69
2023/08/15 00:16:44;;;;;;;10.70;5.05;;;;;;;20.46;100.00;101125.72;5089752;28;20059;-69
2023/08/15 00:19:09;;;;;;;11.02;5.78;;;;;;;20.40;100.00;101109.66;5088393;28;20032;-69
2023/08/15 00:21:35;;;;;;;9.43;4.68;;;;;;;20.34;100.00;101108.81;5089797;28;20546;-69
2023/08/15 00:24:00;;;;;;;9.80;3.80;;;;;;;20.27;100.00;101095.44;5089589;28;20112;-69
2023/08/15 00:26:26;;;;;;;8.20;3.70;;;;;;;20.19;100.00;101105.94;5089733;28;20051;-69
2023/08/15 00:28:51;;;;;;;9.73;4.55;;;;;;;20.10;100.00;101103.69;5089521;28;20433;-69
2023/08/15 00:31:16;;;;;;;8.05;4.20;;;;;;;20.02;100.00;101095.19;5089415;28;20042;-69
2023/08/15 00:33:42;;;;;;;5.40;3.28;;;;;;;19.99;100.00;101109.22;5088510;28;20050;-69
2023/08/15 00:36:07;;;;;;;9.20;3.45;;;;;;;19.97;100.00;101106.78;5089478;28;20118;-69
2023/08/15 00:38:33;;;;;;;9.20;4.45;;;;;;;19.99;100.00;101107.34;5089351;28;20035;-69
2023/08/15 00:40:58;;;;;;;10.95;4.43;;;;;;;20.07;100.00;101117.72;5089356;28;20040;-69
2023/08/15 00:43:24;;;;;;;7.18;4.20;;;;;;;20.14;100.00;101110.19;5089189;28;20146;-69
2023/08/15 00:45:50;;;;;;;7.78;4.35;;;;;;;20.14;100.00;101112.09;5089211;28;20032;-69
2023/08/15 00:48:16;;;;;;;11.32;5.10;;;;;;;20.13;100.00;101116.69;5089129;28;20490;-70
2023/08/15 00:50:45;;;;;;;6.15;4.43;;;;;;;20.10;100.00;101109.09;5089217;28;20032;-69
2023/08/15 00:53:11;;;;;;;10.32;5.28;;;;;;;20.09;100.00;101110.16;5089241;28;20110;-69
2023/08/15 00:55:36;;;;;;;12.77;6.63;;;;;;;20.11;100.00;101116.13;5089111;28;20158;-69
2023/08/15 00:58:02;;;;;;;8.52;4.93;;;;;;;20.11;100.00;101116.13;5087596;28;20032;-69
2023/08/15 01:00:27;;;;;;;8.85;4.80;;;;;;;20.07;100.00;101111.50;5089015;28;20028;-69
2023/08/15 01:02:53;;;;;;;7.65;4.65;;;;;;;20.07;100.00;101122.34;5089186;28;20391;-69
2023/08/15 01:05:20;;;;;;;10.75;4.32;;;;;;;20.05;100.00;101117.16;5089064;28;20043;-69
2023/08/15 01:07:46;;;;;;;9.30;5.38;;;;;;;19.96;100.00;101124.06;5088984;28;20028;-69
2023/08/15 01:10:11;;;;;;;10.77;5.07;;;;;;;19.92;100.00;101126.47;5087973;28;20035;-70
2023/08/15 01:12:52;;;;;;;12.52;6.97;;;;;;;19.89;100.00;101126.19;5092004;28;20024;-69
2023/08/15 01:15:26;;;;;;;11.65;6.13;;;;;;;19.85;100.00;101122.31;5089573;28;20032;-70
2023/08/15 01:18:12;;;;;;;8.48;5.05;;;;;;;19.81;100.00;101126.63;5089073;28;20066;-69
2023/08/15 01:20:39;;;;;;;11.85;5.82;;;;;;;19.72;100.00;101115.38;5088709;28;20033;-69
2023/08/15 01:23:06;;;;;;;10.27;5.30;;;;;;;19.66;100.00;101108.25;5088751;28;20681;-69
2023/08/15 01:25:32;;;;;;;9.30;4.72;;;;;;;19.64;100.00;101110.38;5088841;28;20055;-69
2023/08/15 01:27:59;;;;;;;9.18;5.60;;;;;;;19.60;100.00;101109.28;5088940;28;20085;-69
2023/08/15 01:30:24;;;;;;;8.63;4.93;;;;;;;19.55;100.00;101110.00;5088697;28;20063;-69
2023/08/15 01:33:13;;;;;;;7.18;4.40;;;;;;;19.50;100.00;101115.34;5088766;28;20055;-69
2023/08/15 01:35:45;;;;;;;8.65;3.45;;;;;;;19.43;100.00;101123.63;5088535;28;20073;-69
2023/08/15 01:38:18;;;;;;;7.82;3.80;;;;;;;19.37;100.00;101118.41;5088711;28;20032;-69
2023/08/15 01:40:48;;;;;;;6.60;3.53;;;;;;;19.36;100.00;101130.28;5088844;28;20031;-69
2023/08/15 01:43:16;;;;;;;9.68;5.07;;;;;;;19.33;100.00;101136.19;5088675;28;20384;-69
2023/08/15 01:45:42;;;;;;;6.10;3.47;;;;;;;19.29;100.00;101157.50;5088586;28;20044;-69
2023/08/15 01:48:07;;;;;;;7.95;4.13;;;;;;;19.27;100.00;101173.16;5088866;28;20498;-69
2023/08/15 01:50:33;;;;;;;7.63;3.28;;;;;;;19.28;100.00;101174.78;5088727;28;20058;-69
2023/08/15 01:52:58;;;;;;;7.85;3.17;;;;;;;19.24;100.00;101177.19;5088641;28;20077;-69
2023/08/15 01:55:23;;;;;;;6.90;3.08;;;;;;;19.25;100.00;101170.69;5088888;28;20058;-69
2023/08/15 01:57:49;;;;;;;5.68;2.67;;;;;;;19.23;100.00;101175.56;5092482;28;20093;-69
2023/08/15 02:00:14;;;;;;;7.85;4.25;;;;;;;19.26;100.00;101180.47;5092399;28;20028;-69
2023/08/15 02:02:40;;;;;;;6.20;3.78;;;;;;;19.25;100.00;101176.09;5092269;28;20457;-69
2023/08/15 02:05:06;;;;;;;11.98;4.45;;;;;;;19.20;100.00;101183.31;5092304;28;20039;-69
2023/08/15 02:07:31;;;;;;;9.43;4.85;;;;;;;19.20;100.00;101176.06;5092529;28;20050;-69
2023/08/15 02:09:56;;;;;;;8.50;4.22;;;;;;;19.16;100.00;101183.00;5092333;28;20089;-69
2023/08/15 02:12:22;;;;;;;7.90;4.35;;;;;;;19.15;100.00;101191.34;5092236;28;20031;-69
2023/08/15 02:14:47;;;;;;;7.80;4.50;;;;;;;19.09;100.00;101186.94;5090555;28;20078;-69
2023/08/15 02:17:13;;;;;;;8.20;4.38;;;;;;;19.10;100.00;101188.56;5092026;28;20063;-69
2023/08/15 02:19:38;;;;;;;12.40;4.68;;;;;;;19.05;100.00;101192.84;5092145;28;20120;-69
2023/08/15 02:22:04;;;;;;;7.93;3.97;;;;;;;19.04;100.00;101196.59;5091963;28;20403;-69
2023/08/15 02:24:29;;;;;;;11.70;5.45;;;;;;;19.03;100.00;101196.84;5091864;28;20503;-69
2023/08/15 02:26:54;;;;;;;9.50;4.75;;;;;;;18.98;100.00;101199.47;5091878;28;20136;-69
2023/08/15 02:29:20;;;;;;;13.35;5.68;;;;;;;18.97;100.00;101204.06;5090572;28;20495;-69
2023/08/15 02:31:48;;;;;;;7.53;4.05;;;;;;;18.92;100.00;101203.16;5091752;28;20596;-70
2023/08/15 02:34:18;;;;;;;11.20;4.82;;;;;;;18.88;100.00;101199.28;5091869;28;20043;-69
2023/08/15 02:36:46;;;;;;;10.07;5.00;;;;;;;18.83;100.00;101210.81;5091587;28;20063;-69
2023/08/15 02:39:13;;;;;;;8.15;3.47;;;;;;;18.79;100.00;101215.91;5091563;28;20039;-69
2023/08/15 02:41:39;;;;;;;8.10;3.80;;;;;;;18.73;100.00;101208.72;5091640;28;20408;-69
2023/08/15 02:44:04;;;;;;;12.70;3.42;;;;;;;18.74;100.00;101201.44;5091520;28;20151;-69
2023/08/15 02:46:30;;;;;;;13.60;5.35;;;;;;;18.69;100.00;101204.88;5071961;28;20399;-69
2023/08/15 02:48:55;;;;;;;8.98;4.15;;;;;;;18.64;100.00;101193.97;5072053;28;20032;-69
2023/08/15 02:51:20;;;;;;;9.85;4.85;;;;;;;18.59;100.00;101196.56;5072050;28;20131;-69
2023/08/15 02:53:46;;;;;;;9.30;3.63;;;;;;;18.55;100.00;101182.72;5070772;28;20037;-69
2023/08/15 02:56:12;;;;;;;9.98;4.28;;;;;;;18.50;100.00;101182.63;5071887;28;20103;-69
2023/08/15 02:58:37;;;;;;;9.82;3.47;;;;;;;18.50;100.00;101195.31;5071988;28;20020;-69
2023/08/15 03:01:02;;;;;;;8.52;3.60;;;;;;;18.45;100.00;101189.81;5071666;28;20518;-69
2023/08/15 03:03:29;;;;;;;5.00;3.65;;;;;;;18.43;100.00;101200.03;5072023;28;20029;-69
2023/08/15 03:05:59;;;;;;;9.25;3.58;;;;;;;18.39;100.00;101200.53;5090908;28;20647;-70
2023/08/15 03:08:24;;;;;;;13.30;4.78;;;;;;;18.38;100.00;101206.16;5089808;28;20098;-69
2023/08/15 03:10:50;;;;;;;7.70;3.80;;;;;;;18.34;100.00;101208.53;5091178;28;20123;-69
2023/08/15 03:13:16;;;;;;;8.45;3.60;;;;;;;18.33;100.00;101214.97;5090921;28;20020;-69
2023/08/15 03:15:50;;;;;;;7.85;3.55;;;;;;;18.32;100.00;101223.31;5090852;28;20036;-69
2023/08/15 03:18:15;;;;;;;9.93;3.15;;;;;;;18.29;100.00;101208.41;5090830;28;20036;-69
2023/08/15 03:20:40;;;;;;;9.77;3.78;;;;;;;18.29;100.00;101213.81;5090888;28;20036;-69
2023/08/15 03:23:06;;;;;;;8.38;2.95;;;;;;;18.28;100.00;101216.75;5090934;28;20032;-69
2023/08/15 03:25:32;;;;;;;9.38;3.50;;;;;;;18.29;100.00;101213.00;5091094;28;20076;-69
2023/08/15 03:27:57;;;;;;;7.57;3.55;;;;;;;18.23;100.00;101216.66;5090777;28;20038;-69
2023/08/15 03:30:22;;;;;;;11.70;4.60;;;;;;;18.20;100.00;101211.72;5090689;28;20059;-69
2023/08/15 03:32:48;;;;;;;13.18;4.28;;;;;;;18.18;100.00;101215.50;5090750;28;20081;-69
2023/08/15 03:35:13;;;;;;;7.43;3.30;;;;;;;18.18;100.00;101217.34;5090469;28;20031;-69
2023/08/15 03:37:38;;;;;;;9.25;4.35;;;;;;;18.15;100.00;101207.03;5090645;28;20031;-69
2023/08/15 03:40:04;;;;;;;9.07;3.47;;;;;;;18.12;100.00;101207.50;5090390;28;20050;-69
2023/08/15 03:42:30;;;;;;;11.38;4.70;;;;;;;18.06;100.00;101214.69;5090481;28;20033;-69
2023/08/15 03:44:55;;;;;;;8.38;4.53;;;;;;;18.05;100.00;101212.22;5090269;28;20056;-69
2023/08/15 03:47:20;;;;;;;11.50;4.95;;;;;;;18.02;100.00;101207.28;5090888;28;20144;-69
2023/08/15 03:49:46;;;;;;;7.53;3.42;;;;;;;17.96;100.00;101214.47;5091625;28;20028;-69
2023/08/15 03:52:11;;;;;;;14.00;4.93;;;;;;;17.90;100.00;101213.53;5090788;28;20032;-69
2023/08/15 03:54:37;;;;;;;11.20;4.57;;;;;;;17.88;100.00;101210.25;5090169;28;20127;-69
2023/08/15 03:57:02;;;;;;;13.20;3.90;;;;;;;17.82;100.00;101208.50;5090143;28;20024;-69
2023/08/15 03:59:28;;;;;;;8.70;3.60;;;;;;;17.80;100.00;101212.50;5090125;28;20123;-69
2023/08/15 04:01:54;;;;;;;8.10;3.55;;;;;;;17.75;100.00;101222.06;5089940;28;20036;-69
2023/08/15 04:04:20;;;;;;;13.02;4.53;;;;;;;17.72;100.00;101213.63;5090064;28;20047;-69
2023/08/15 04:06:45;;;;;;;13.43;5.90;;;;;;;17.66;100.00;101219.97;5090039;28;20547;-69
2023/08/15 04:09:11;;;;;;;7.38;4.53;;;;;;;17.62;100.00;101214.22;5090249;28;20398;-69
2023/08/15 04:11:37;;;;;;;13.77;4.13;;;;;;;17.58;100.00;101214.91;5090028;28;20043;-69
2023/08/15 04:14:02;;;;;;;14.27;4.70;;;;;;;17.56;100.00;101208.97;5089797;28;20035;-70
2023/08/15 04:16:27;;;;;;;12.18;4.20;;;;;;;17.51;100.00;101215.03;5089792;28;20133;-70
2023/08/15 04:18:53;;;;;;;11.70;3.83;;;;;;;17.47;100.00;101221.94;5088380;28;20566;-69
2023/08/15 04:21:18;;;;;;;11.00;5.50;;;;;;;17.47;100.00;101221.94;5089660;28;20024;-69
2023/08/15 04:23:43;;;;;;;8.93;4.75;;;;;;;17.42;100.00;101209.19;5089714;28;20032;-69
2023/08/15 04:26:09;;;;;;;10.30;4.60;;;;;;;17.38;100.00;101201.78;5089693;28;20062;-69
2023/08/15 04:28:34;;;;;;;9.35;4.07;;;;;;;17.38;100.00;101218.78;5089360;28;20024;-69
2023/08/15 04:30:59;;;;;;;11.63;3.97;;;;;;;17.33;100.00;101209.75;5089225;28;20157;-69
2023/08/15 04:33:25;;;;;;;11.38;6.25;;;;;;;17.34;100.00;101219.47;5088784;28;20067;-69
2023/08/15 04:35:50;;;;;;;9.82;4.72;;;;;;;17.32;100.00;101227.81;5088633;28;20707;-69
2023/08/15 04:38:15;;;;;;;11.18;4.07;;;;;;;17.33;100.00;101237.53;5088894;28;20111;-69
2023/08/15 04:40:43;;;;;;;11.10;4.65;;;;;;;17.29;100.00;101228.25;5089509;28;20066;-69
2023/08/15 04:43:09;;;;;;;10.43;5.22;;;;;;;17.23;100.00;101237.28;5088477;28;20036;-69
2023/08/15 04:45:40;;;;;;;12.25;5.18;;;;;;;17.25;100.00;101244.09;5088205;28;20054;-69
2023/08/15 04:48:09;;;;;;;10.15;4.50;;;;;;;17.27;100.00;101243.84;5089251;28;20032;-69
2023/08/15 04:50:35;;;;;;;9.23;5.25;;;;;;;17.25;100.00;101254.03;5089299;28;20073;-69
2023/08/15 04:53:00;;;;;;;12.18;5.13;;;;;;;17.24;100.00;101252.41;5088023;28;20560;-69
2023/08/15 04:55:26;;;;;;;13.55;5.22;;;;;;;17.24;100.00;101261.31;5088998;28;20601;-69
2023/08/15 04:57:51;;;;;;;14.05;5.05;;;;;;;17.25;100.00;101264.84;5088838;28;20390;-70
2023/08/15 05:00:19;;;;;;;10.13;4.20;;;;;;;17.28;100.00;101275.16;5088059;28;20388;-69
2023/08/15 05:02:45;;;;;;;15.38;5.43;;;;;;;17.29;100.00;101276.78;5088184;28;20161;-69
2023/08/15 05:05:10;;;;;;;12.75;4.43;;;;;;;17.26;100.00;101280.75;5087919;28;20111;-69
2023/08/15 05:07:36;;;;;;;12.35;5.63;;;;;;;17.23;100.00;101292.00;5088805;28;20123;-69
2023/08/15 05:10:02;;;;;;;11.90;4.30;;;;;;;17.31;100.00;101293.56;5078020;28;20119;-69
2023/08/15 05:12:27;;;;;;;14.38;5.50;;;;;;;17.32;100.00;101295.22;5069649;28;20128;-69
2023/08/15 05:14:52;;;;;;;12.05;4.57;;;;;;;17.33;100.00;101304.94;5069508;28;20516;-69
2023/08/15 05:17:19;;;;;;;16.67;5.40;;;;;;;17.29;100.00;101309.13;5069594;28;20119;-69
2023/08/15 05:19:44;;;;;;;9.65;4.40;;;;;;;17.27;100.00;101311.25;5069577;28;20029;-69
2023/08/15 05:22:09;;;;;;;10.82;4.15;;;;;;;17.27;100.00;101312.06;5069645;28;20040;-69
2023/08/15 05:24:35;;;;;;;16.63;5.40;;;;;;;17.32;100.00;101319.47;5069738;28;20072;-69
2023/08/15 05:27:00;;;;;;;10.57;4.53;;;;;;;17.40;100.00;101327.25;5069662;28;20052;-69
2023/08/15 05:29:25;;;;;;;10.68;5.10;;;;;;;17.46;100.00;101323.59;5088433;28;20032;-69
2023/08/15 05:31:51;;;;;;;13.43;5.10;;;;;;;17.50;100.00;101326.66;5091610;28;20933;-69
2023/08/15 05:34:17;;;;;;;11.23;4.45;;;;;;;17.60;100.00;101336.88;5091687;28;20036;-69
2023/08/15 05:36:42;;;;;;;15.52;4.88;;;;;;;17.71;100.00;101331.53;5092880;28;20058;-69
2023/08/15 05:39:07;;;;;;;8.93;4.45;;;;;;;17.77;100.00;101339.75;5092761;28;20579;-69
2023/08/15 05:41:33;;;;;;;16.48;5.25;;;;;;;17.87;100.00;101338.16;5092847;28;20059;-69
2023/08/15 05:43:58;;;;;;;14.93;5.13;;;;;;;17.97;100.00;101332.16;5092695;28;20143;-69
2023/08/15 05:46:23;;;;;;;17.73;5.68;;;;;;;18.03;100.00;101327.72;5092750;28;20067;-69
2023/08/15 05:48:49;;;;;;;12.13;4.70;;;;;;;18.08;100.00;101320.56;5092774;28;20028;-69
2023/08/15 05:51:14;;;;;;;14.27;5.60;;;;;;;18.14;100.00;101326.88;5073125;28;20032;-69
2023/08/15 05:53:40;;;;;;;12.20;5.03;;;;;;;18.17;100.00;101329.94;5077758;28;20038;-69
2023/08/15 05:56:05;;;;;;;18.60;5.53;;;;;;;18.22;100.00;101331.13;5087285;28;20028;-69
2023/08/15 05:58:31;;;;;;;10.48;5.78;;;;;;;18.27;100.00;101339.34;5089383;28;20391;-69
2023/08/15 06:00:56;;;;;;;15.60;7.03;;;;;;;18.30;100.00;101342.38;5090869;28;20429;-69
2023/08/15 06:03:22;;;;;;;13.07;5.20;;;;;;;18.32;100.00;101347.53;5092317;28;20036;-69
2023/08/15 06:05:47;;;;;;;11.55;5.55;;;;;;;18.37;100.00;101348.47;5092414;28;20044;-69
2023/08/15 06:08:12;;;;;;;13.90;5.35;;;;;;;18.45;100.00;101347.28;5092332;28;20028;-69
2023/08/15 06:10:38;;;;;;;13.35;5.22;;;;;;;18.45;100.00;101343.78;5092317;28;20468;-69
2023/08/15 06:13:03;;;;;;;12.45;5.22;;;;;;;18.49;100.00;101343.03;5090962;28;21021;-69
2023/08/15 06:15:29;;;;;;;11.63;4.30;;;;;;;18.47;100.00;101337.09;5092190;28;20036;-69
2023/08/15 06:17:54;;;;;;;14.55;5.07;;;;;;;18.55;100.00;101350.22;5092014;28;20492;-69
2023/08/15 06:20:20;;;;;;;9.50;4.47;;;;;;;18.59;100.00;101359.47;5090886;28;20036;-69
2023/08/15 06:22:45;;;;;;;10.35;4.70;;;;;;;18.59;100.00;101375.69;5090676;28;20032;-69
2023/08/15 06:25:11;;;;;;;15.20;4.85;;;;;;;18.68;100.00;101370.75;5091991;28;20032;-69
2023/08/15 06:27:37;;;;;;;14.50;5.63;;;;;;;18.67;100.00;101377.19;5092060;28;20027;-69
2023/08/15 06:30:02;;;;;;;11.60;5.88;;;;;;;18.71;100.00;101377.56;5091887;28;20031;-69
2023/08/15 06:32:29;;;;;;;13.00;4.97;;;;;;;18.71;100.00;101375.69;5081086;28;20036;-69
2023/08/15 06:34:54;;;;;;;10.98;5.80;;;;;;;18.74;100.00;101374.38;5083033;28;20032;-70
2023/08/15 06:37:20;;;;;;;15.93;5.95;;;;;;;18.72;100.00;101374.59;5076209;28;20349;-70
2023/08/15 06:39:46;;;;;;;9.52;5.28;;;;;;;18.71;100.00;101377.56;5088896;28;20086;-68
2023/08/15 06:42:11;;;;;;;17.35;5.65;;;;;;;18.70;100.00;101379.44;5091566;28;20036;-69
2023/08/15 06:44:37;;;;;;;11.80;4.95;;;;;;;18.70;100.00;101376.72;5091542;28;20079;-69
2023/08/15 06:47:02;;;;;;;11.52;5.15;;;;;;;18.77;100.00;101384.75;5090306;28;20107;-69
2023/08/15 06:49:28;;;;;;;12.75;5.28;;;;;;;18.81;100.00;101388.59;5091565;28;20036;-69
2023/08/15 06:51:53;;;;;;;13.40;6.22;;;;;;;18.87;100.00;101386.84;5091561;28;20039;-69
2023/08/15 06:54:18;;;;;;;13.85;5.88;;;;;;;18.92;100.00;101387.78;5091455;28;20425;-69
2023/08/15 06:56:44;;;;;;;13.40;6.53;;;;;;;18.99;100.00;101390.31;5091244;28;20059;-69
2023/08/15 06:59:09;;;;;;;17.48;6.03;;;;;;;19.03;100.00;101396.91;5091269;28;20443;-69
2023/08/15 07:01:35;;;;;;;11.55;5.38;;;;;;;19.07;100.00;101394.53;5089323;28;20024;-69
2023/08/15 07:04:00;;;;;;;9.02;4.43;;;;;;;19.13;100.00;101389.00;5071673;28;20476;-69
2023/08/15 07:06:25;;;;;;;12.60;4.90;;;;;;;19.15;100.00;101394.16;5072129;28;20024;-69
2023/08/15 07:08:52;;;;;;;11.98;4.55;;;;;;;19.23;100.00;101391.06;5090711;28;20123;-69
2023/08/15 07:11:17;;;;;;;13.10;5.55;;;;;;;19.31;100.00;101382.59;5090736;28;20484;-69
2023/08/15 07:13:43;;;;;;;15.32;6.75;;;;;;;19.41;100.00;101380.06;5089262;28;20054;-69
2023/08/15 07:16:08;;;;;;;14.18;5.60;;;;;;;19.61;100.00;101390.41;5089179;28;20063;-70
2023/08/15 07:18:33;;;;;;;13.05;5.43;;;;;;;19.68;100.00;101390.31;5090522;28;20032;-70
2023/08/15 07:20:59;;;;;;;14.63;5.45;;;;;;;19.73;100.00;101401.22;5090610;28;20073;-70
2023/08/15 07:23:25;;;;;;;10.95;4.68;;;;;;;19.78;100.00;101398.59;5090802;28;20080;-70
2023/08/15 07:25:50;;;;;;;13.55;5.10;;;;;;;19.86;100.00;101397.38;5090419;28;20032;-70
2023/08/15 07:28:16;;;;;;;16.30;6.03;;;;;;;19.99;100.00;101407.03;5090401;28;20028;-70
2023/08/15 07:30:45;;;;;;;12.85;4.90;;;;;;;20.02;100.00;101410.09;5090327;28;20314;-70
2023/08/15 07:33:11;;;;;;;13.05;5.00;;;;;;;20.11;100.00;101407.78;5090219;28;20027;-69
2023/08/15 07:35:36;;;;;;;14.95;5.47;;;;;;;20.18;100.00;101411.16;5090306;28;20064;-71
2023/08/15 07:38:01;;;;;;;14.30;4.80;;;;;;;20.32;100.00;101412.44;5090176;28;20031;-67
2023/08/15 07:40:27;;;;;;;12.25;4.25;;;;;;;20.40;100.00;101407.69;5090106;28;20115;-67
2023/08/15 07:42:54;;;;;;;10.15;4.25;;;;;;;20.56;100.00;101417.72;5090152;28;20059;-67
2023/08/15 07:45:20;;;;;;;11.73;3.95;;;;;;;20.63;100.00;101417.53;5089971;28;20433;-70
2023/08/15 07:47:48;;;;;;;8.85;3.80;;;;;;;20.57;100.00;101422.06;5082310;28;20036;-69
2023/08/15 07:50:18;;;;;;;10.85;3.80;;;;;;;20.52;100.00;101420.06;5084881;28;20619;-68
2023/08/15 07:52:44;;;;;;;13.73;5.30;;;;;;;20.49;100.00;101417.88;5089825;28;20039;-71
2023/08/15 07:55:10;;;;;;;13.23;4.80;;;;;;;20.51;100.00;101420.31;5089263;28;20372;-71
2023/08/15 07:57:35;;;;;;;6.78;3.97;;;;;;;20.48;100.00;101418.09;5088630;28;20383;-70
2023/08/15 08:00:01;;;;;;;10.07;3.35;;;;;;;20.48;100.00;101426.22;5083016;28;20024;-70
2023/08/15 08:02:26;;;;;;;12.52;4.68;;;;;;;20.45;100.00;101421.31;5073867;28;20144;-70
2023/08/15 08:04:52;;;;;;;7.32;3.40;;;;;;;20.44;100.00;101444.88;5074341;28;20028;-69
2023/08/15 08:07:18;;;;;;;12.43;3.95;;;;;;;20.48;100.00;101435.19;5073976;28;20067;-70
2023/08/15 08:09:43;;;;;;;7.18;3.88;;;;;;;20.60;100.00;101437.03;5073516;28;20642;-69
2023/08/15 08:12:09;;;;;;;10.60;3.70;;;;;;;20.89;100.00;101440.41;5073399;28;20029;-69
2023/08/15 08:14:34;;;;;;;12.35;4.32;;;;;;;21.09;100.00;101440.66;5072668;28;20020;-68
2023/08/15 08:17:00;;;;;;;12.48;4.85;;;;;;;21.32;100.00;101446.88;5073030;28;20052;-69
2023/08/15 08:19:25;;;;;;;8.57;3.47;;;;;;;21.58;100.00;101434.44;5074098;28;20027;-68
2023/08/15 08:21:51;;;;;;;10.70;3.72;;;;;;;21.91;98.96;101444.25;5074022;28;20031;-69
2023/08/15 08:24:16;;;;;;;8.40;2.92;;;;;;;21.85;97.38;101437.97;5071444;28;20029;-71
2023/08/15 08:26:42;;;;;;;12.45;3.30;;;;;;;21.83;97.81;101448.25;5070160;28;20024;-71
2023/08/15 08:29:08;;;;;;;9.57;3.35;;;;;;;21.94;97.76;101456.50;5068441;28;20033;-71
2023/08/15 08:31:33;;;;;;;8.95;3.28;;;;;;;22.93;94.76;101447.72;5069799;28;20024;-71
2023/08/15 08:33:58;;;;;;;11.23;3.75;;;;;;;23.32;87.82;101455.50;5069640;28;20090;-71
2023/08/15 08:36:24;;;;;;;11.20;2.65;;;;;;;23.68;88.11;101449.31;5069633;28;20035;-71
2023/08/15 08:38:49;;;;;;;8.18;2.72;;;;;;;23.74;88.11;101443.66;5082883;28;20025;-71
2023/08/15 08:41:14;;;;;;;9.60;3.67;;;;;;;23.71;86.99;101441.44;5069780;28;20040;-71
2023/08/15 08:43:40;;;;;;;9.70;3.05;;;;;;;23.96;84.14;101434.41;5069567;28;20430;-71
2023/08/15 08:46:08;;;;;;;12.35;3.70;;;;;;;24.47;82.48;101443.41;5081975;28;20024;-71
2023/08/15 08:48:33;;;;;;;7.70;2.40;;;;;;;24.95;81.96;101442.97;5088937;28;20023;-71
2023/08/15 08:50:59;;;;;;;9.45;3.72;;;;;;;24.70;79.85;101452.88;5088650;28;20476;-71
2023/08/15 08:53:24;;;;;;;10.52;3.75;;;;;;;24.11;80.54;101460.84;5088803;28;20043;-71
2023/08/15 08:55:50;;;;;;;7.53;3.20;;;;;;;23.37;83.60;101452.81;5088763;28;20024;-71
2023/08/15 08:58:16;;;;;;;10.50;2.92;;;;;;;22.82;87.18;101450.63;5088827;28;20110;-71
2023/08/15 09:00:41;;;;;;;10.77;4.47;;;;;;;22.44;89.79;101447.97;5088849;28;20452;-71
2023/08/15 09:03:08;;;;;;;9.88;4.05;;;;;;;22.17;91.46;101455.34;5088656;28;20089;-71
2023/08/15 09:05:33;;;;;;;6.22;3.80;;;;;;;22.00;93.46;101450.84;5087965;28;20119;-71
2023/08/15 09:08:00;;;;;;;11.80;3.92;;;;;;;21.88;96.13;101445.59;5088818;28;20140;-71
2023/08/15 09:10:25;;;;;;;9.70;3.63;;;;;;;21.80;96.27;101454.22;5087216;28;20475;-71
2023/08/15 09:12:56;;;;;;;10.48;3.95;;;;;;;21.79;95.90;101455.28;5088586;28;20020;-71
2023/08/15 09:15:23;;;;;;;10.73;3.55;;;;;;;21.75;96.28;101456.88;5088588;28;20475;-71
2023/08/15 09:17:49;;;;;;;14.02;4.00;;;;;;;21.73;99.00;101459.03;5088638;28;20036;-71
2023/08/15 09:20:18;;;;;;;7.55;3.53;;;;;;;21.73;98.48;101466.34;5086936;28;20081;-71
2023/08/15 09:22:45;;;;;;;9.93;3.25;;;;;;;21.73;98.66;101466.34;5088503;28;20475;-71
2023/08/15 09:25:15;;;;;;;12.60;4.50;;;;;;;21.71;98.42;101472.03;5088370;28;20032;-71
2023/08/15 09:27:41;;;;;;;10.05;3.58;;;;;;;21.67;97.50;101470.91;5088556;28;20036;-71
2023/08/15 09:30:19;;;;;;;7.57;3.80;;;;;;;21.68;98.19;101477.97;5088255;28;20421;-71
2023/08/15 09:32:46;;;;;;;14.10;4.07;;;;;;;21.68;97.57;101483.41;5088486;28;20386;-71
2023/08/15 09:35:13;;;;;;;10.02;3.35;;;;;;;21.76;99.34;101482.94;5087109;28;20032;-71
2023/08/15 09:37:44;;;;;;;14.32;3.50;;;;;;;21.77;97.79;101487.31;5088495;28;20089;-71
2023/08/15 09:40:12;;;;;;;12.52;3.75;;;;;;;21.90;98.54;101494.22;5088586;28;20075;-71
2023/08/15 09:42:38;;;;;;;16.60;4.43;;;;;;;22.08;98.19;101491.13;5088352;28;20024;-71
2023/08/15 09:45:04;;;;;;;14.95;3.63;;;;;;;22.40;99.43;101493.06;5088334;28;20070;-71
2023/08/15 09:47:30;;;;;;;9.35;4.47;;;;;;;22.64;96.59;101484.53;5088113;28;20429;-71
2023/08/15 09:49:56;;;;;;;6.63;3.28;;;;;;;22.80;95.89;101485.44;5088341;28;20047;-71
2023/08/15 09:52:23;;;;;;;6.75;2.60;;;;;;;22.91;96.68;101489.84;5088151;28;20100;-71
2023/08/15 09:54:48;;;;;;;10.32;3.60;;;;;;;22.94;92.44;101490.13;5088627;28;20502;-71
2023/08/15 09:57:14;;;;;;;10.88;3.33;;;;;;;22.97;90.62;101491.53;5088190;28;20032;-71
2023/08/15 09:59:39;;;;;;;11.77;4.68;;;;;;;22.93;91.67;101493.13;5088025;28;20085;-71
2023/08/15 10:02:16;;;;;;;7.47;3.65;;;;;;;22.82;92.07;101499.59;5088526;28;20062;-71
2023/08/15 10:04:42;;;;;;;7.95;3.28;;;;;;;22.66;92.83;101510.38;5088154;28;20178;-71
2023/08/15 10:07:08;;;;;;;10.82;4.43;;;;;;;22.53;91.54;101508.09;5085249;28;20032;-71
2023/08/15 10:09:33;;;;;;;7.88;5.10;;;;;;;22.40;92.26;101522.13;5087746;28;20123;-71
2023/08/15 10:12:00;;;;;;;11.80;3.35;;;;;;;22.30;92.44;101522.88;5088024;28;20032;-71
2023/08/15 10:14:26;;;;;;;9.38;4.65;;;;;;;22.32;93.05;101526.13;5086766;28;20043;-71
2023/08/15 10:16:52;;;;;;;7.65;3.83;;;;;;;22.35;92.41;101522.09;5069445;28;20557;-71
2023/08/15 10:19:18;;;;;;;8.00;3.90;;;;;;;22.34;93.65;101525.91;5091490;28;20043;-72
2023/08/15 10:21:50;;;;;;;9.85;3.58;;;;;;;22.35;95.15;101522.09;5091696;28;20169;-71
2023/08/15 10:24:15;;;;;;;12.10;4.40;;;;;;;22.37;94.09;101523.47;5091795;28;20050;-71
2023/08/15 10:26:42;;;;;;;6.47;3.40;;;;;;;22.45;96.15;101527.59;5091561;28;20020;-71
2023/08/15 10:29:08;;;;;;;11.32;3.83;;;;;;;22.54;96.07;101526.88;5091900;28;20038;-71
2023/08/15 10:31:35;;;;;;;7.35;3.70;;;;;;;22.67;93.83;101522.91;5090160;28;20031;-71
2023/08/15 10:34:03;;;;;;;9.05;4.75;;;;;;;22.82;93.29;101521.34;5091569;28;20028;-71
2023/08/15 10:36:29;;;;;;;18.20;5.20;;;;;;;23.00;93.25;101528.28;5091412;28;20111;-71
2023/08/15 10:38:55;;;;;;;7.05;3.78;;;;;;;23.11;91.46;101530.81;5091240;28;20085;-71
2023/08/15 10:41:21;;;;;;;10.57;3.80;;;;;;;23.10;90.45;101536.50;5090107;28;20089;-71
2023/08/15 10:43:55;;;;;;;6.82;3.67;;;;;;;23.21;92.99;101529.22;5090955;28;20067;-71
2023/08/15 10:46:29;;;;;;;9.82;4.20;;;;;;;23.33;91.14;101530.63;5091236;28;20020;-71
2023/08/15 10:48:58;;;;;;;6.85;3.90;;;;;;;23.38;88.97;101536.09;5089697;28;20028;-71
2023/08/15 10:51:27;;;;;;;14.43;3.40;;;;;;;23.37;91.64;101531.75;5091075;28;20082;-71
2023/08/15 10:53:59;;;;;;;7.82;4.10;;;;;;;23.43;91.64;101526.34;5091048;28;20024;-71
2023/08/15 10:56:28;;;;;;;9.55;3.47;;;;;;;23.59;93.20;101526.09;5090947;28;20139;-71
2023/08/15 10:58:54;;;;;;;13.77;4.47;;;;;;;23.75;92.19;101531.63;5090996;28;20027;-71
2023/08/15 11:01:22;;;;;;;10.40;4.15;;;;;;;23.84;90.78;101541.75;5090995;28;20063;-71
2023/08/15 11:03:48;;;;;;;8.90;3.35;;;;;;;23.91;91.46;101530.56;5090984;28;20039;-71
2023/08/15 11:06:14;;;;;;;10.88;3.53;;;;;;;23.84;90.07;101533.56;5084885;28;20089;-71
2023/08/15 11:08:49;;;;;;;11.95;4.78;;;;;;;23.78;88.32;101529.19;5070483;28;20476;-71
2023/08/15 11:11:16;;;;;;;10.77;3.47;;;;;;;23.88;88.17;101528.41;5090314;28;20082;-72